YMA7582 UAAA-UZTT
Flight info
| Callsign | YMA7582 |
|---|---|
| Flight time | 1h 13m |
| Altitude | 34000 |
| Route | LAKEL1B LAKEL L135 MAMIR P984 TISIB TISIB2T |
| Aircraft | B738/M-SDE2E3FGHIRWXY/LB1 |
Departure
| Time | 2026-05-05 09:24 |
|---|---|
| Airport | Almaty International Airport (UAAA) |
Arrival
| Time | 2026-05-05 10:37 |
|---|---|
| Airport | Tashkent International Airport (UZTT) |
| Time | Latitude | Longitude | Altitude | Speed | Heading |
|---|---|---|---|---|---|
| 2026-05-05 09:00 | 43.34680 | 77.01310 | 2235 ft | 0 kts | 245° |
| 2026-05-05 09:13 | 43.34683 | 77.01318 | 2235 ft | 2 kts | 245° |
| 2026-05-05 09:13 | 43.34690 | 77.01337 | 2235 ft | 2 kts | 245° |
| 2026-05-05 09:13 | 43.34696 | 77.01356 | 2235 ft | 2 kts | 245° |
| 2026-05-05 09:13 | 43.34700 | 77.01369 | 2234 ft | 0 kts | 245° |
| 2026-05-05 09:14 | 43.34707 | 77.01386 | 2234 ft | 2 kts | 223° |
| 2026-05-05 09:14 | 43.34719 | 77.01397 | 2234 ft | 2 kts | 201° |
| 2026-05-05 09:14 | 43.34734 | 77.01402 | 2234 ft | 2 kts | 178° |
| 2026-05-05 09:14 | 43.34747 | 77.01399 | 2233 ft | 0 kts | 158° |
| 2026-05-05 09:15 | 43.34753 | 77.01395 | 2233 ft | 1 kts | 155° |
| 2026-05-05 09:15 | 43.34753 | 77.01394 | 2233 ft | 0 kts | 155° |
| 2026-05-05 09:17 | 43.34732 | 77.01408 | 2234 ft | 6 kts | 155° |
| 2026-05-05 09:17 | 43.34685 | 77.01438 | 2235 ft | 8 kts | 154° |
| 2026-05-05 09:17 | 43.34634 | 77.01462 | 2237 ft | 6 kts | 168° |
| 2026-05-05 09:18 | 43.34592 | 77.01469 | 2238 ft | 5 kts | 172° |
| 2026-05-05 09:18 | 43.34546 | 77.01490 | 2240 ft | 8 kts | 157° |
| 2026-05-05 09:18 | 43.34478 | 77.01532 | 2242 ft | 12 kts | 155° |
| 2026-05-05 09:18 | 43.34399 | 77.01582 | 2242 ft | 11 kts | 154° |
| 2026-05-05 09:19 | 43.34329 | 77.01628 | 2243 ft | 11 kts | 156° |
| 2026-05-05 09:19 | 43.34266 | 77.01668 | 2244 ft | 5 kts | 155° |
| 2026-05-05 09:19 | 43.34260 | 77.01671 | 2244 ft | 0 kts | 155° |
| 2026-05-05 09:20 | 43.34258 | 77.01672 | 2244 ft | 1 kts | 155° |
| 2026-05-05 09:20 | 43.34226 | 77.01693 | 2245 ft | 8 kts | 155° |
| 2026-05-05 09:21 | 43.34168 | 77.01734 | 2246 ft | 10 kts | 146° |
| 2026-05-05 09:21 | 43.34150 | 77.01798 | 2246 ft | 0 kts | 56° |
| 2026-05-05 09:23 | 43.34163 | 77.01826 | 2246 ft | 12 kts | 56° |
| 2026-05-05 09:23 | 43.34356 | 77.02214 | 2245 ft | 88 kts | 56° |
| 2026-05-05 09:23 | 43.34842 | 77.03193 | 2240 ft | 157 kts | 55° |
| 2026-05-05 09:24 | 43.35546 | 77.04610 | 2589 ft | 185 kts | 57° |
| 2026-05-05 09:24 | 43.36227 | 77.06013 | 3458 ft | 184 kts | 56° |
| 2026-05-05 09:24 | 43.36959 | 77.07496 | 4065 ft | 196 kts | 55° |
| 2026-05-05 09:24 | 43.37765 | 77.09087 | 4515 ft | 213 kts | 54° |
| 2026-05-05 09:25 | 43.38654 | 77.10812 | 5026 ft | 229 kts | 54° |
| 2026-05-05 09:25 | 43.39587 | 77.12622 | 5608 ft | 240 kts | 54° |
| 2026-05-05 09:25 | 43.40573 | 77.14533 | 6191 ft | 253 kts | 54° |
| 2026-05-05 09:25 | 43.41750 | 77.16386 | 6813 ft | 263 kts | 40° |
| 2026-05-05 09:26 | 43.43349 | 77.17670 | 7443 ft | 274 kts | 19° |
| 2026-05-05 09:26 | 43.45228 | 77.18034 | 8180 ft | 281 kts | 356° |
| 2026-05-05 09:26 | 43.47138 | 77.17370 | 8708 ft | 289 kts | 335° |
| 2026-05-05 09:26 | 43.48825 | 77.15911 | 8965 ft | 292 kts | 325° |
| 2026-05-05 09:27 | 43.50447 | 77.14196 | 8970 ft | 290 kts | 323° |
| 2026-05-05 09:27 | 43.52011 | 77.12455 | 8974 ft | 288 kts | 319° |
| 2026-05-05 09:27 | 43.53330 | 77.10392 | 8996 ft | 292 kts | 304° |
| 2026-05-05 09:27 | 43.54169 | 77.07796 | 9135 ft | 308 kts | 282° |
| 2026-05-05 09:28 | 43.54346 | 77.04942 | 10161 ft | 301 kts | 272° |
| 2026-05-05 09:28 | 43.54430 | 77.01993 | 10746 ft | 314 kts | 273° |
| 2026-05-05 09:28 | 43.54467 | 76.98953 | 11229 ft | 328 kts | 268° |
| 2026-05-05 09:28 | 43.54051 | 76.95778 | 11617 ft | 344 kts | 249° |
| 2026-05-05 09:29 | 43.52850 | 76.92921 | 12044 ft | 357 kts | 229° |
| 2026-05-05 09:29 | 43.51043 | 76.90479 | 12527 ft | 370 kts | 221° |
| 2026-05-05 09:29 | 43.49099 | 76.88113 | 13036 ft | 380 kts | 220° |
| 2026-05-05 09:29 | 43.47111 | 76.85699 | 13709 ft | 385 kts | 220° |
| 2026-05-05 09:30 | 43.45095 | 76.83230 | 14387 ft | 390 kts | 221° |
| 2026-05-05 09:30 | 43.43012 | 76.80850 | 15063 ft | 394 kts | 215° |
| 2026-05-05 09:30 | 43.40628 | 76.78988 | 15719 ft | 396 kts | 200° |
| 2026-05-05 09:30 | 43.37943 | 76.78140 | 16404 ft | 396 kts | 183° |
| 2026-05-05 09:31 | 43.35225 | 76.78287 | 17070 ft | 397 kts | 169° |
| 2026-05-05 09:31 | 43.32523 | 76.79225 | 17736 ft | 399 kts | 159° |
| 2026-05-05 09:31 | 43.30026 | 76.80804 | 18350 ft | 401 kts | 147° |
| 2026-05-05 09:31 | 43.27719 | 76.82923 | 18980 ft | 404 kts | 143° |
| 2026-05-05 09:32 | 43.25355 | 76.85063 | 19538 ft | 411 kts | 148° |
| 2026-05-05 09:32 | 43.22738 | 76.86752 | 20142 ft | 417 kts | 159° |
| 2026-05-05 09:32 | 43.19953 | 76.87793 | 20740 ft | 422 kts | 169° |
| 2026-05-05 09:32 | 43.17012 | 76.88175 | 21347 ft | 427 kts | 179° |
| 2026-05-05 09:33 | 43.14062 | 76.87869 | 21937 ft | 431 kts | 189° |
| 2026-05-05 09:33 | 43.11169 | 76.86888 | 22520 ft | 434 kts | 199° |
| 2026-05-05 09:33 | 43.08399 | 76.85241 | 23090 ft | 437 kts | 209° |
| 2026-05-05 09:33 | 43.05833 | 76.82957 | 23643 ft | 440 kts | 219° |
| 2026-05-05 09:34 | 43.03599 | 76.80150 | 24244 ft | 441 kts | 228° |
| 2026-05-05 09:34 | 43.01598 | 76.76950 | 24851 ft | 442 kts | 232° |
| 2026-05-05 09:34 | 42.99699 | 76.73717 | 25390 ft | 444 kts | 232° |
| 2026-05-05 09:34 | 42.97686 | 76.70484 | 25912 ft | 447 kts | 229° |
| 2026-05-05 09:35 | 42.95557 | 76.67392 | 26401 ft | 449 kts | 227° |
| 2026-05-05 09:35 | 42.91698 | 76.60706 | 27325 ft | 452 kts | 239° |
| 2026-05-05 09:35 | 42.90065 | 76.57066 | 27805 ft | 454 kts | 240° |
| 2026-05-05 09:36 | 42.88502 | 76.53326 | 28262 ft | 455 kts | 243° |
| 2026-05-05 09:36 | 42.87052 | 76.49464 | 28695 ft | 458 kts | 245° |
| 2026-05-05 09:36 | 42.85681 | 76.45528 | 29102 ft | 461 kts | 246° |
| 2026-05-05 09:36 | 42.84346 | 76.41553 | 29525 ft | 462 kts | 246° |
| 2026-05-05 09:37 | 42.83054 | 76.37641 | 30192 ft | 458 kts | 247° |
| 2026-05-05 09:37 | 42.81743 | 76.33659 | 30873 ft | 454 kts | 246° |
| 2026-05-05 09:37 | 42.80462 | 76.29783 | 31495 ft | 451 kts | 246° |
| 2026-05-05 09:37 | 42.79181 | 76.25931 | 32245 ft | 445 kts | 245° |
| 2026-05-05 09:38 | 42.77919 | 76.22154 | 32995 ft | 438 kts | 245° |
| 2026-05-05 09:38 | 42.76658 | 76.18388 | 33378 ft | 440 kts | 245° |
| 2026-05-05 09:38 | 42.74054 | 76.10674 | 33767 ft | 449 kts | 245° |
| 2026-05-05 09:39 | 42.72746 | 76.06819 | 34236 ft | 448 kts | 245° |
| 2026-05-05 09:39 | 42.71429 | 76.02952 | 34315 ft | 452 kts | 245° |
| 2026-05-05 09:39 | 42.68803 | 75.95258 | 34322 ft | 449 kts | 245° |
| 2026-05-05 09:40 | 42.66175 | 75.87583 | 34324 ft | 450 kts | 245° |
| 2026-05-05 09:40 | 42.63515 | 75.79840 | 34318 ft | 451 kts | 244° |
| 2026-05-05 09:41 | 42.60859 | 75.72128 | 34320 ft | 450 kts | 245° |
| 2026-05-05 09:41 | 42.58219 | 75.64477 | 34327 ft | 448 kts | 245° |
| 2026-05-05 09:42 | 42.55571 | 75.56825 | 34334 ft | 452 kts | 245° |
| 2026-05-05 09:42 | 42.52898 | 75.49125 | 34345 ft | 453 kts | 244° |
| 2026-05-05 09:43 | 42.50203 | 75.41379 | 34361 ft | 453 kts | 244° |
| 2026-05-05 09:43 | 42.47520 | 75.33694 | 34355 ft | 453 kts | 244° |
| 2026-05-05 09:44 | 42.44814 | 75.25964 | 34328 ft | 454 kts | 244° |
| 2026-05-05 09:44 | 42.42176 | 75.18229 | 34329 ft | 455 kts | 246° |
| 2026-05-05 09:45 | 42.39981 | 75.10234 | 34333 ft | 455 kts | 250° |
| 2026-05-05 09:45 | 42.37965 | 75.02126 | 34340 ft | 455 kts | 251° |
| 2026-05-05 09:46 | 42.35960 | 74.94065 | 34341 ft | 456 kts | 251° |
| 2026-05-05 09:46 | 42.33907 | 74.85953 | 34338 ft | 456 kts | 250° |
| 2026-05-05 09:47 | 42.31833 | 74.77868 | 34345 ft | 456 kts | 250° |
| 2026-05-05 09:47 | 42.29748 | 74.69813 | 34359 ft | 457 kts | 250° |
| 2026-05-05 09:48 | 42.27639 | 74.61716 | 34349 ft | 457 kts | 250° |
| 2026-05-05 09:48 | 42.25535 | 74.53682 | 34354 ft | 457 kts | 250° |
| 2026-05-05 09:49 | 42.23413 | 74.45612 | 34352 ft | 458 kts | 251° |
| 2026-05-05 09:49 | 42.21287 | 74.37550 | 34345 ft | 457 kts | 251° |
| 2026-05-05 09:50 | 42.19156 | 74.29504 | 34370 ft | 457 kts | 250° |
| 2026-05-05 09:50 | 42.17014 | 74.21448 | 34374 ft | 456 kts | 250° |
| 2026-05-05 09:51 | 42.14863 | 74.13382 | 34382 ft | 456 kts | 250° |
| 2026-05-05 09:51 | 42.12720 | 74.05367 | 34361 ft | 457 kts | 250° |
| 2026-05-05 09:52 | 42.10570 | 73.97353 | 34372 ft | 455 kts | 250° |
| 2026-05-05 09:52 | 42.08409 | 73.89321 | 34371 ft | 456 kts | 250° |
| 2026-05-05 09:53 | 42.06252 | 73.81333 | 34374 ft | 456 kts | 250° |
| 2026-05-05 09:53 | 42.04097 | 73.73313 | 34368 ft | 456 kts | 251° |
| 2026-05-05 09:54 | 42.02044 | 73.65249 | 34366 ft | 457 kts | 252° |
| 2026-05-05 09:54 | 42.00021 | 73.57153 | 34361 ft | 457 kts | 252° |
| 2026-05-05 09:55 | 41.97994 | 73.49072 | 34352 ft | 456 kts | 252° |
| 2026-05-05 09:55 | 41.95964 | 73.41045 | 34355 ft | 455 kts | 252° |
| 2026-05-05 09:56 | 41.93918 | 73.33009 | 34360 ft | 457 kts | 251° |
| 2026-05-05 09:56 | 41.91861 | 73.24966 | 34348 ft | 457 kts | 251° |
| 2026-05-05 09:57 | 41.89800 | 73.16943 | 34344 ft | 455 kts | 251° |
| 2026-05-05 09:57 | 41.87728 | 73.08910 | 34325 ft | 455 kts | 252° |
| 2026-05-05 09:58 | 41.85659 | 73.00920 | 34319 ft | 454 kts | 251° |
| 2026-05-05 09:58 | 41.83591 | 72.92957 | 34298 ft | 453 kts | 252° |
| 2026-05-05 09:59 | 41.81508 | 72.84955 | 34303 ft | 454 kts | 252° |
| 2026-05-05 09:59 | 41.79429 | 72.76996 | 34286 ft | 455 kts | 252° |
| 2026-05-05 10:00 | 41.77337 | 72.69012 | 34296 ft | 455 kts | 252° |
| 2026-05-05 10:00 | 41.75245 | 72.61051 | 34300 ft | 455 kts | 252° |
| 2026-05-05 10:01 | 41.73140 | 72.53071 | 34313 ft | 454 kts | 252° |
| 2026-05-05 10:01 | 41.71041 | 72.45139 | 34314 ft | 454 kts | 253° |
| 2026-05-05 10:02 | 41.68923 | 72.37165 | 34344 ft | 453 kts | 253° |
| 2026-05-05 10:02 | 41.66818 | 72.29263 | 34323 ft | 454 kts | 252° |
| 2026-05-05 10:03 | 41.64695 | 72.21317 | 34296 ft | 455 kts | 252° |
| 2026-05-05 10:03 | 41.62577 | 72.13409 | 34324 ft | 454 kts | 252° |
| 2026-05-05 10:04 | 41.60445 | 72.05483 | 34311 ft | 453 kts | 252° |
| 2026-05-05 10:04 | 41.58323 | 71.97621 | 34308 ft | 452 kts | 253° |
| 2026-05-05 10:05 | 41.56192 | 71.89751 | 34288 ft | 452 kts | 253° |
| 2026-05-05 10:05 | 41.54055 | 71.81879 | 34300 ft | 451 kts | 253° |
| 2026-05-05 10:06 | 41.51916 | 71.74027 | 34290 ft | 452 kts | 252° |
| 2026-05-05 10:06 | 41.49780 | 71.66214 | 34281 ft | 451 kts | 252° |
| 2026-05-05 10:07 | 41.47620 | 71.58343 | 34289 ft | 451 kts | 252° |
| 2026-05-05 10:07 | 41.45475 | 71.50536 | 34258 ft | 450 kts | 253° |
| 2026-05-05 10:08 | 41.43333 | 71.42773 | 34281 ft | 450 kts | 253° |
| 2026-05-05 10:08 | 41.41172 | 71.34964 | 34283 ft | 450 kts | 252° |
| 2026-05-05 10:09 | 41.39015 | 71.27184 | 34272 ft | 449 kts | 252° |
| 2026-05-05 10:09 | 41.36847 | 71.19387 | 34285 ft | 449 kts | 252° |
| 2026-05-05 10:10 | 41.34685 | 71.11636 | 34308 ft | 449 kts | 252° |
| 2026-05-05 10:10 | 41.32500 | 71.03825 | 34313 ft | 448 kts | 252° |
| 2026-05-05 10:11 | 41.30332 | 70.96102 | 34298 ft | 447 kts | 252° |
| 2026-05-05 10:11 | 41.28167 | 70.88411 | 34315 ft | 447 kts | 252° |
| 2026-05-05 10:12 | 41.25975 | 70.80653 | 34312 ft | 447 kts | 252° |
| 2026-05-05 10:12 | 41.23790 | 70.72942 | 34297 ft | 447 kts | 252° |
| 2026-05-05 10:13 | 41.21605 | 70.65250 | 34281 ft | 447 kts | 252° |
| 2026-05-05 10:13 | 41.19411 | 70.57551 | 34248 ft | 447 kts | 252° |
| 2026-05-05 10:14 | 41.17211 | 70.49854 | 34240 ft | 448 kts | 251° |
| 2026-05-05 10:14 | 41.15003 | 70.42156 | 34245 ft | 446 kts | 251° |
| 2026-05-05 10:15 | 41.12786 | 70.34448 | 34238 ft | 447 kts | 251° |
| 2026-05-05 10:15 | 41.10577 | 70.26784 | 34235 ft | 446 kts | 251° |
| 2026-05-05 10:16 | 41.08055 | 70.19304 | 33927 ft | 443 kts | 245° |
| 2026-05-05 10:16 | 41.06616 | 70.15711 | 33437 ft | 439 kts | 243° |
| 2026-05-05 10:16 | 41.05156 | 70.12219 | 32808 ft | 438 kts | 243° |
| 2026-05-05 10:17 | 41.03664 | 70.08699 | 32069 ft | 439 kts | 243° |
| 2026-05-05 10:17 | 41.02163 | 70.05159 | 31268 ft | 441 kts | 243° |
| 2026-05-05 10:17 | 41.00669 | 70.01615 | 30424 ft | 444 kts | 243° |
| 2026-05-05 10:17 | 40.99176 | 69.98049 | 29544 ft | 447 kts | 243° |
| 2026-05-05 10:18 | 40.97692 | 69.94489 | 28807 ft | 442 kts | 243° |
| 2026-05-05 10:18 | 40.96242 | 69.91000 | 28260 ft | 430 kts | 243° |
| 2026-05-05 10:18 | 40.94820 | 69.87576 | 27733 ft | 418 kts | 243° |
| 2026-05-05 10:18 | 40.93475 | 69.84251 | 27223 ft | 407 kts | 246° |
| 2026-05-05 10:19 | 40.92404 | 69.80872 | 26722 ft | 395 kts | 254° |
| 2026-05-05 10:19 | 40.91773 | 69.77360 | 26248 ft | 398 kts | 263° |
| 2026-05-05 10:19 | 40.91534 | 69.73709 | 25726 ft | 400 kts | 269° |
| 2026-05-05 10:19 | 40.91494 | 69.70100 | 25212 ft | 394 kts | 272° |
| 2026-05-05 10:20 | 40.91537 | 69.66489 | 24695 ft | 389 kts | 273° |
| 2026-05-05 10:20 | 40.91612 | 69.62960 | 24169 ft | 384 kts | 273° |
| 2026-05-05 10:20 | 40.91691 | 69.59483 | 23657 ft | 379 kts | 273° |
| 2026-05-05 10:20 | 40.91764 | 69.56043 | 23143 ft | 376 kts | 273° |
| 2026-05-05 10:21 | 40.91828 | 69.52611 | 22644 ft | 373 kts | 272° |
| 2026-05-05 10:21 | 40.91884 | 69.49193 | 22141 ft | 377 kts | 272° |
| 2026-05-05 10:21 | 40.91933 | 69.45744 | 21623 ft | 377 kts | 272° |
| 2026-05-05 10:21 | 40.91978 | 69.42281 | 21105 ft | 373 kts | 272° |
| 2026-05-05 10:22 | 40.92017 | 69.38894 | 20609 ft | 369 kts | 272° |
| 2026-05-05 10:22 | 40.92054 | 69.35545 | 20116 ft | 365 kts | 272° |
| 2026-05-05 10:22 | 40.92090 | 69.32190 | 19621 ft | 362 kts | 271° |
| 2026-05-05 10:22 | 40.92123 | 69.28884 | 19122 ft | 358 kts | 271° |
| 2026-05-05 10:23 | 40.92156 | 69.25651 | 18621 ft | 355 kts | 271° |
| 2026-05-05 10:23 | 40.92188 | 69.22402 | 18107 ft | 353 kts | 271° |
| 2026-05-05 10:23 | 40.92218 | 69.19192 | 17608 ft | 350 kts | 271° |
| 2026-05-05 10:23 | 40.92247 | 69.15977 | 17108 ft | 347 kts | 271° |
| 2026-05-05 10:24 | 40.92274 | 69.12819 | 16626 ft | 344 kts | 271° |
| 2026-05-05 10:24 | 40.92339 | 69.09714 | 16128 ft | 341 kts | 275° |
| 2026-05-05 10:24 | 40.92788 | 69.06642 | 15654 ft | 337 kts | 290° |
| 2026-05-05 10:24 | 40.93915 | 69.04003 | 15187 ft | 335 kts | 309° |
| 2026-05-05 10:25 | 40.95628 | 69.01872 | 14724 ft | 341 kts | 322° |
| 2026-05-05 10:25 | 40.97653 | 69.00249 | 14233 ft | 342 kts | 334° |
| 2026-05-05 10:25 | 40.99901 | 68.99322 | 13771 ft | 341 kts | 347° |
| 2026-05-05 10:25 | 41.02246 | 68.98830 | 13265 ft | 340 kts | 351° |
| 2026-05-05 10:26 | 41.04578 | 68.98480 | 12791 ft | 338 kts | 354° |
| 2026-05-05 10:26 | 41.06939 | 68.98688 | 12320 ft | 338 kts | 10° |
| 2026-05-05 10:26 | 41.09149 | 68.99675 | 11860 ft | 338 kts | 25° |
| 2026-05-05 10:26 | 41.11068 | 69.01438 | 11406 ft | 337 kts | 44° |
| 2026-05-05 10:27 | 41.12403 | 69.03951 | 10963 ft | 336 kts | 64° |
| 2026-05-05 10:27 | 41.13139 | 69.06844 | 10562 ft | 332 kts | 77° |
| 2026-05-05 10:27 | 41.13557 | 69.09804 | 10349 ft | 321 kts | 81° |
| 2026-05-05 10:27 | 41.13872 | 69.12671 | 10247 ft | 308 kts | 82° |
| 2026-05-05 10:28 | 41.14154 | 69.15427 | 10138 ft | 296 kts | 83° |
| 2026-05-05 10:28 | 41.14429 | 69.18085 | 9867 ft | 292 kts | 82° |
| 2026-05-05 10:28 | 41.14717 | 69.20766 | 9465 ft | 292 kts | 82° |
| 2026-05-05 10:28 | 41.15010 | 69.23408 | 9104 ft | 291 kts | 82° |
| 2026-05-05 10:29 | 41.15306 | 69.26047 | 8750 ft | 289 kts | 82° |
| 2026-05-05 10:29 | 41.15603 | 69.28669 | 8389 ft | 288 kts | 82° |
| 2026-05-05 10:29 | 41.15900 | 69.31304 | 8033 ft | 286 kts | 82° |
| 2026-05-05 10:29 | 41.16189 | 69.33865 | 7700 ft | 284 kts | 82° |
| 2026-05-05 10:30 | 41.16481 | 69.36468 | 7345 ft | 281 kts | 82° |
| 2026-05-05 10:30 | 41.16764 | 69.38994 | 7006 ft | 279 kts | 81° |
| 2026-05-05 10:30 | 41.17048 | 69.41538 | 6652 ft | 277 kts | 81° |
| 2026-05-05 10:30 | 41.17327 | 69.44038 | 6321 ft | 274 kts | 81° |
| 2026-05-05 10:31 | 41.17602 | 69.46511 | 6161 ft | 264 kts | 81° |
| 2026-05-05 10:31 | 41.17892 | 69.48827 | 6093 ft | 252 kts | 76° |
| 2026-05-05 10:31 | 41.18489 | 69.50957 | 6018 ft | 240 kts | 54° |
| 2026-05-05 10:31 | 41.19721 | 69.52373 | 5889 ft | 238 kts | 21° |
| 2026-05-05 10:32 | 41.21332 | 69.52776 | 5587 ft | 236 kts | 354° |
| 2026-05-05 10:32 | 41.22941 | 69.52502 | 5326 ft | 232 kts | 350° |
| 2026-05-05 10:32 | 41.24520 | 69.52214 | 5039 ft | 228 kts | 351° |
| 2026-05-05 10:32 | 41.26073 | 69.51885 | 4862 ft | 219 kts | 344° |
| 2026-05-05 10:33 | 41.27397 | 69.51028 | 4658 ft | 210 kts | 313° |
| 2026-05-05 10:33 | 41.28042 | 69.49378 | 4398 ft | 204 kts | 277° |
| 2026-05-05 10:33 | 41.27987 | 69.47500 | 4046 ft | 206 kts | 261° |
| 2026-05-05 10:33 | 41.27758 | 69.45621 | 3680 ft | 208 kts | 260° |
| 2026-05-05 10:34 | 41.27546 | 69.43735 | 3405 ft | 204 kts | 262° |
| 2026-05-05 10:34 | 41.27352 | 69.41878 | 3141 ft | 201 kts | 261° |
| 2026-05-05 10:34 | 41.27156 | 69.40072 | 2877 ft | 193 kts | 261° |
| 2026-05-05 10:34 | 41.26971 | 69.38393 | 2646 ft | 179 kts | 261° |
| 2026-05-05 10:35 | 41.26803 | 69.36847 | 2459 ft | 164 kts | 261° |
| 2026-05-05 10:35 | 41.26643 | 69.35369 | 2200 ft | 155 kts | 261° |
| 2026-05-05 10:35 | 41.26492 | 69.33971 | 1963 ft | 153 kts | 261° |
| 2026-05-05 10:35 | 41.26336 | 69.32570 | 1790 ft | 154 kts | 261° |
| 2026-05-05 10:36 | 41.26185 | 69.31169 | 1613 ft | 154 kts | 261° |
| 2026-05-05 10:36 | 41.26026 | 69.29759 | 1455 ft | 151 kts | 260° |
| 2026-05-05 10:36 | 41.25883 | 69.28525 | 1422 ft | 114 kts | 260° |
| 2026-05-05 10:36 | 41.25794 | 69.27689 | 1422 ft | 67 kts | 262° |
| 2026-05-05 10:37 | 41.25741 | 69.27145 | 1421 ft | 56 kts | 261° |
| 2026-05-05 10:37 | 41.25689 | 69.26648 | 1421 ft | 51 kts | 260° |
| 2026-05-05 10:37 | 41.25741 | 69.26429 | 1421 ft | 10 kts | 2° |
| 2026-05-05 10:37 | 41.25810 | 69.26463 | 1421 ft | 10 kts | 24° |
| 2026-05-05 10:38 | 41.25878 | 69.26505 | 1421 ft | 10 kts | 25° |
| 2026-05-05 10:38 | 41.25935 | 69.26557 | 1421 ft | 9 kts | 58° |
| 2026-05-05 10:38 | 41.25967 | 69.26636 | 1421 ft | 9 kts | 65° |
| 2026-05-05 10:38 | 41.25992 | 69.26715 | 1421 ft | 9 kts | 67° |
| 2026-05-05 10:39 | 41.25997 | 69.26790 | 1421 ft | 8 kts | 123° |
| 2026-05-05 10:39 | 41.25968 | 69.26814 | 1421 ft | 0 kts | 155° |